Time;durP1;ratioP1;P1;durP2;ratioP2;P2;SDS_P1;SDS_P2;PMS_P1;PMS_P2;Temp;Humidity;BMP_temperature;BMP_pressure;BME280_temperature;BME280_humidity;BME280_pressure;Samples;Min_cycle;Max_cycle;Signal;HPM_P1;HPM_P2
2021/08/20 00:02:06;;;;;;;10.43;5.37;;;;;;;19.09;76.21;99992.84;1739953;81;21197;-53
2021/08/20 00:05:13;;;;;;;8.18;5.42;;;;;;;19.11;76.20;99992.59;1737646;81;21399;-54
2021/08/20 00:08:18;;;;;;;7.25;5.35;;;;;;;19.12;76.14;99989.58;1737238;81;21471;-55
2021/08/20 00:11:26;;;;;;;9.40;5.47;;;;;;;19.13;76.04;99982.97;1751075;79;21264;-53
2021/08/20 00:14:32;;;;;;;6.33;4.75;;;;;;;19.14;76.01;99972.69;1768527;79;21240;-55
2021/08/20 00:17:39;;;;;;;8.73;5.05;;;;;;;19.14;75.92;99972.16;1746021;81;21236;-52
2021/08/20 00:20:45;;;;;;;8.55;5.03;;;;;;;19.13;75.93;99956.60;1728605;83;21173;-54
2021/08/20 00:23:50;;;;;;;10.43;5.95;;;;;;;19.11;75.92;99955.14;1770299;79;21421;-54
2021/08/20 00:26:57;;;;;;;8.15;6.08;;;;;;;19.05;75.99;99958.34;1771931;81;21204;-53
2021/08/20 00:30:07;;;;;;;8.18;4.80;;;;;;;19.04;76.02;99955.25;1736817;81;21261;-54
2021/08/20 00:33:13;;;;;;;8.30;5.30;;;;;;;19.04;75.99;99956.64;1734612;82;21351;-54
2021/08/20 00:36:20;;;;;;;10.13;5.53;;;;;;;19.02;75.95;99956.06;1757851;81;21323;-54
2021/08/20 00:39:26;;;;;;;9.23;5.33;;;;;;;18.98;75.99;99954.83;1757586;79;21217;-54
2021/08/20 00:42:32;;;;;;;8.13;5.28;;;;;;;18.96;75.95;99960.33;1735970;82;21209;-54
2021/08/20 00:45:38;;;;;;;8.65;5.33;;;;;;;18.93;75.98;99961.64;1757506;81;21339;-54
2021/08/20 00:48:47;;;;;;;8.20;5.78;;;;;;;18.90;75.92;99957.96;1751469;81;21265;-52
2021/08/20 00:51:52;;;;;;;8.40;5.00;;;;;;;18.87;76.01;99956.20;1695945;84;21333;-55
2021/08/20 00:55:01;;;;;;;7.22;5.25;;;;;;;18.82;75.96;99956.92;1737319;81;21174;-54
2021/08/20 00:58:07;;;;;;;9.45;5.90;;;;;;;18.77;75.99;99954.05;1772602;79;21220;-55
2021/08/20 01:01:13;;;;;;;10.23;5.08;;;;;;;18.73;76.01;99944.50;1772863;80;21355;-55
2021/08/20 01:04:20;;;;;;;6.62;4.87;;;;;;;18.69;76.01;99943.84;1739239;81;21380;-55
2021/08/20 01:07:28;;;;;;;11.10;5.72;;;;;;;18.66;76.08;99940.16;1736368;82;21177;-55
2021/08/20 01:10:33;;;;;;;6.67;4.97;;;;;;;18.62;76.20;99942.56;1737193;79;21276;-54
2021/08/20 01:13:44;;;;;;;10.80;5.50;;;;;;;18.61;76.30;99941.41;1702624;83;21245;-53
2021/08/20 01:16:50;;;;;;;8.05;5.50;;;;;;;18.59;76.32;99936.11;1704634;83;21411;-54
2021/08/20 01:20:00;;;;;;;8.80;4.92;;;;;;;18.60;76.32;99935.02;1702374;83;21562;-54
2021/08/20 01:23:08;;;;;;;7.95;5.30;;;;;;;18.60;76.16;99936.96;1697487;83;21261;-55
2021/08/20 01:26:14;;;;;;;9.88;5.22;;;;;;;18.58;76.03;99934.43;1653998;86;21241;-54
2021/08/20 01:29:23;;;;;;;7.85;5.45;;;;;;;18.57;75.90;99933.25;1722378;82;21240;-55
2021/08/20 01:32:30;;;;;;;7.12;4.60;;;;;;;18.54;75.77;99924.03;1721396;83;21208;-54
2021/08/20 01:35:36;;;;;;;9.60;5.08;;;;;;;18.54;75.80;99926.80;1721827;83;21196;-53
2021/08/20 01:38:58;;;;;;;8.35;5.05;;;;;;;18.53;75.54;99929.28;1721463;82;21219;-57
2021/08/20 01:42:03;;;;;;;12.73;4.97;;;;;;;18.52;75.43;99924.27;1722753;83;21339;-55
2021/08/20 01:45:09;;;;;;;8.00;5.28;;;;;;;18.51;75.15;99914.27;1722134;82;21288;-54
2021/08/20 01:48:18;;;;;;;8.60;5.95;;;;;;;18.48;75.12;99921.69;1695229;83;21348;-55
2021/08/20 01:51:26;;;;;;;9.40;4.85;;;;;;;18.47;75.08;99911.66;1697042;83;21284;-54
2021/08/20 01:54:31;;;;;;;7.83;5.17;;;;;;;18.45;75.00;99902.76;1712750;82;21430;-53
2021/08/20 01:57:39;;;;;;;8.18;4.80;;;;;;;18.43;75.01;99904.91;1706377;84;21363;-53
2021/08/20 02:00:47;;;;;;;7.85;5.30;;;;;;;18.43;74.94;99899.91;1706961;83;21229;-57
2021/08/20 02:03:54;;;;;;;9.45;5.12;;;;;;;18.42;74.81;99899.08;1694230;83;21289;-54
2021/08/20 02:07:00;;;;;;;7.12;4.85;;;;;;;18.41;74.66;99895.16;1673467;85;21246;-55
2021/08/20 02:10:07;;;;;;;7.03;4.55;;;;;;;18.40;74.73;99897.08;1689299;83;21612;-54
2021/08/20 02:13:15;;;;;;;6.40;4.45;;;;;;;18.41;74.82;99897.38;1724821;81;21225;-55
2021/08/20 02:16:24;;;;;;;6.58;4.78;;;;;;;18.42;74.78;99896.84;1738022;81;21284;-54
2021/08/20 02:19:31;;;;;;;6.35;4.62;;;;;;;18.43;74.82;99896.60;1736074;81;21233;-57
2021/08/20 02:22:37;;;;;;;7.70;4.95;;;;;;;18.43;74.78;99895.75;1736089;82;21790;-57
2021/08/20 02:25:42;;;;;;;7.20;5.10;;;;;;;18.43;74.72;99902.14;1736006;82;21205;-55
2021/08/20 02:28:48;;;;;;;9.55;5.05;;;;;;;18.42;74.75;99901.00;1736452;81;21253;-55
2021/08/20 02:31:55;;;;;;;9.10;4.80;;;;;;;18.43;74.68;99904.91;1736213;82;21395;-54
2021/08/20 02:35:01;;;;;;;8.68;4.78;;;;;;;18.46;74.68;99894.73;1736062;81;21281;-57
2021/08/20 02:38:07;;;;;;;7.35;5.37;;;;;;;18.48;74.61;99892.58;1736588;81;21327;-54
2021/08/20 02:41:14;;;;;;;8.05;5.33;;;;;;;18.50;74.61;99893.72;1736185;82;21666;-55
2021/08/20 02:44:21;;;;;;;10.32;4.60;;;;;;;18.51;74.54;99896.26;1736065;81;21363;-54
2021/08/20 02:47:28;;;;;;;10.58;5.37;;;;;;;18.53;74.42;99891.33;1736082;82;21793;-53
2021/08/20 02:50:36;;;;;;;7.65;4.65;;;;;;;18.53;74.42;99891.86;1740485;81;21366;-54
2021/08/20 02:53:43;;;;;;;9.65;5.20;;;;;;;18.52;74.42;99884.08;1771575;80;21959;-54
2021/08/20 02:56:49;;;;;;;7.58;4.50;;;;;;;18.54;74.42;99887.98;1769086;80;21185;-54
2021/08/20 02:59:58;;;;;;;8.30;4.92;;;;;;;18.52;74.33;99897.94;1767581;80;21990;-54
2021/08/20 03:03:04;;;;;;;8.68;4.70;;;;;;;18.52;74.36;99892.39;1767914;80;21418;-55
2021/08/20 03:06:10;;;;;;;8.30;4.80;;;;;;;18.52;74.26;99893.77;1767666;80;21232;-54
2021/08/20 03:09:20;;;;;;;5.97;4.42;;;;;;;18.51;74.36;99884.31;1767760;80;21255;-56
2021/08/20 03:12:22;;;;;;;7.97;4.62;;;;;;;18.51;74.35;99882.93;1706794;84;21344;-55
2021/08/20 03:15:29;;;;;;;;;;;;;;;18.52;74.29;99873.55;1742061;82;21354;-55
2021/08/20 03:18:35;;;;;;;13.13;5.62;;;;;;;18.52;74.36;99887.41;1752179;80;20259;-54
2021/08/20 03:21:42;;;;;;;7.90;4.83;;;;;;;18.53;74.46;99877.47;1718632;81;21217;-56
2021/08/20 03:24:48;;;;;;;9.98;4.62;;;;;;;18.55;74.39;99879.44;1752282;80;21402;-53
2021/08/20 03:27:56;;;;;;;6.85;4.90;;;;;;;18.57;74.23;99879.19;1752162;81;21216;-56
2021/08/20 03:31:03;;;;;;;8.88;4.87;;;;;;;18.58;74.17;99884.53;1752139;81;21339;-53
2021/08/20 03:34:10;;;;;;;6.28;4.70;;;;;;;18.58;74.10;99886.45;1752744;80;21374;-57
2021/08/20 03:37:18;;;;;;;7.15;4.62;;;;;;;18.58;74.08;99897.00;1735899;82;21568;-53
2021/08/20 03:40:24;;;;;;;10.05;5.22;;;;;;;18.59;74.01;99881.19;1736126;82;22011;-54
2021/08/20 03:43:31;;;;;;;8.10;4.80;;;;;;;18.60;74.05;99903.70;1726882;81;21213;-54
2021/08/20 03:46:37;;;;;;;8.73;4.95;;;;;;;18.61;74.07;99897.91;1736180;82;21240;-53
2021/08/20 03:49:44;;;;;;;9.60;4.78;;;;;;;18.63;74.04;99905.42;1736093;81;21329;-56
2021/08/20 03:52:52;;;;;;;7.35;4.67;;;;;;;18.64;74.01;99914.06;1735967;82;21209;-55
2021/08/20 03:56:00;;;;;;;6.05;4.22;;;;;;;18.67;73.98;99906.64;1736133;82;21201;-54
2021/08/20 03:59:06;;;;;;;6.00;4.22;;;;;;;18.66;73.95;99911.88;1735924;81;21257;-55
2021/08/20 04:02:16;;;;;;;8.15;5.17;;;;;;;18.69;73.96;99923.04;1735873;82;21276;-56
2021/08/20 04:05:24;;;;;;;7.45;4.65;;;;;;;18.70;74.06;99919.17;1735935;82;21197;-55
2021/08/20 04:08:31;;;;;;;9.15;4.80;;;;;;;18.73;73.97;99915.92;1735775;81;21347;-53
2021/08/20 04:11:54;;;;;;;9.15;5.08;;;;;;;18.77;74.01;99906.91;1736313;82;21336;-56
2021/08/20 04:15:08;;;;;;;8.18;4.87;;;;;;;18.80;74.08;99907.81;1752890;80;21331;-53
2021/08/20 04:18:13;;;;;;;9.63;4.87;;;;;;;18.84;73.87;99903.98;1745237;81;21332;-56
2021/08/20 04:21:19;;;;;;;7.70;4.75;;;;;;;18.86;73.87;99911.00;1772382;80;21422;-56
2021/08/20 04:24:25;;;;;;;6.60;4.72;;;;;;;18.89;73.58;99905.50;1767678;80;21722;-54
2021/08/20 04:27:51;;;;;;;8.55;4.97;;;;;;;18.89;73.51;99901.34;1767670;81;21872;-57
2021/08/20 04:31:05;;;;;;;9.45;5.00;;;;;;;18.89;73.50;99899.42;1735552;82;21201;-57
2021/08/20 04:34:32;;;;;;;8.63;4.83;;;;;;;18.90;73.44;99889.17;1736074;81;21336;-55
2021/08/20 04:37:42;;;;;;;6.05;4.40;;;;;;;18.91;73.35;99879.23;1755368;80;21758;-55
2021/08/20 04:41:05;;;;;;;11.08;4.28;;;;;;;18.96;73.30;99877.93;1765813;80;21423;-56
2021/08/20 04:44:13;;;;;;;8.90;4.65;;;;;;;19.04;73.02;99883.11;1776031;79;22016;-54
2021/08/20 04:47:26;;;;;;;7.00;4.47;;;;;;;19.10;72.67;99891.88;1740079;82;21744;-54
2021/08/20 04:50:39;;;;;;;12.07;5.00;;;;;;;19.17;72.60;99889.80;1657298;84;21723;-55
2021/08/20 04:53:51;;;;;;;7.55;4.70;;;;;;;19.26;72.35;99880.57;1768941;79;21256;-56
2021/08/20 04:57:05;;;;;;;7.70;4.83;;;;;;;19.37;71.85;99896.39;1721557;81;21201;-55
2021/08/20 05:00:12;;;;;;;7.15;4.90;;;;;;;19.46;71.68;99898.22;1769733;78;21269;-53
2021/08/20 05:03:20;;;;;;;6.58;4.45;;;;;;;19.53;71.42;99903.96;1767174;80;21189;-54
2021/08/20 05:06:26;;;;;;;9.18;4.97;;;;;;;19.60;71.30;99905.22;1788449;79;21224;-53
2021/08/20 05:09:35;;;;;;;8.70;4.70;;;;;;;19.71;70.95;99906.55;1788743;78;21169;-55
2021/08/20 05:12:41;;;;;;;9.38;4.87;;;;;;;19.81;70.62;99914.24;1788462;79;21188;-54
2021/08/20 05:15:53;;;;;;;5.75;3.98;;;;;;;19.90;70.25;99916.38;1772624;80;21177;-55
2021/08/20 05:19:01;;;;;;;6.87;4.45;;;;;;;19.96;69.97;99919.59;1735697;82;21754;-54
2021/08/20 05:22:07;;;;;;;7.03;4.47;;;;;;;20.04;69.94;99912.78;1761968;79;21502;-55
2021/08/20 05:25:14;;;;;;;7.78;4.70;;;;;;;20.14;70.04;99909.67;1772691;79;21813;-56
2021/08/20 05:28:20;;;;;;;7.22;5.00;;;;;;;20.28;69.70;99906.05;1781029;78;21214;-55
2021/08/20 05:31:26;;;;;;;7.47;4.25;;;;;;;20.43;69.37;99912.72;1767793;81;21343;-54
2021/08/20 05:34:32;;;;;;;7.75;4.12;;;;;;;20.58;68.90;99919.10;1724649;82;21220;-57
2021/08/20 05:37:38;;;;;;;8.40;4.37;;;;;;;20.68;68.46;99909.52;1736309;82;21744;-53
2021/08/20 05:40:42;;;;;;;4.78;3.83;;;;;;;20.80;68.12;99906.12;1747143;79;21177;-55
2021/08/20 05:43:48;;;;;;;6.62;4.20;;;;;;;20.90;67.53;99900.70;1749081;82;21467;-55
2021/08/20 05:46:53;;;;;;;8.70;4.35;;;;;;;21.01;67.18;99911.49;1749384;82;21173;-55
2021/08/20 05:49:59;;;;;;;7.33;4.72;;;;;;;21.12;66.52;99905.80;1749477;82;21235;-53
2021/08/20 05:53:04;;;;;;;7.45;4.28;;;;;;;21.23;66.47;99902.06;1766828;80;21370;-56
2021/08/20 05:56:10;;;;;;;9.13;4.20;;;;;;;21.37;66.38;99904.80;1765008;80;21742;-55
2021/08/20 05:59:17;;;;;;;8.45;4.50;;;;;;;21.48;65.72;99902.45;1788754;80;21476;-56
2021/08/20 06:02:22;;;;;;;10.35;4.37;;;;;;;21.62;65.59;99896.78;1748066;80;21788;-54
2021/08/20 06:05:28;;;;;;;8.68;4.45;;;;;;;21.79;64.90;99904.53;1818313;78;21454;-56
2021/08/20 06:08:34;;;;;;;7.62;4.45;;;;;;;21.92;64.76;99904.14;1787485;78;21224;-54
2021/08/20 06:11:40;;;;;;;7.55;4.30;;;;;;;22.00;63.93;99909.26;1815794;78;21235;-57
2021/08/20 06:14:48;;;;;;;7.90;4.50;;;;;;;22.01;64.06;99910.93;1752257;80;21216;-56
2021/08/20 06:17:53;;;;;;;10.03;4.03;;;;;;;22.05;63.64;99900.10;1762069;78;21417;-55
2021/08/20 06:20:59;;;;;;;9.05;4.45;;;;;;;22.10;63.79;99897.38;1767924;80;21161;-56
2021/08/20 06:24:04;;;;;;;7.90;4.60;;;;;;;22.13;63.54;99887.94;1766746;79;21734;-55
2021/08/20 06:27:10;;;;;;;6.97;4.40;;;;;;;22.14;63.30;99889.61;1761052;80;21496;-57
2021/08/20 06:30:17;;;;;;;6.75;4.05;;;;;;;22.19;63.55;99890.21;1775702;78;21345;-55
2021/08/20 06:33:23;;;;;;;9.60;4.58;;;;;;;22.26;63.36;99888.61;1781681;79;21398;-58
2021/08/20 06:36:35;;;;;;;8.90;4.97;;;;;;;22.32;63.02;99897.31;1765512;80;21391;-61
2021/08/20 06:39:54;;;;;;;7.60;4.62;;;;;;;22.36;62.87;99897.09;1788429;78;22213;-61
2021/08/20 06:43:01;;;;;;;8.03;4.33;;;;;;;22.42;62.84;99884.29;1738392;81;21256;-61
2021/08/20 06:46:07;;;;;;;7.65;4.83;;;;;;;22.51;62.96;99877.69;1736164;82;21196;-60
2021/08/20 06:49:13;;;;;;;7.12;4.50;;;;;;;22.58;62.36;99886.73;1737734;81;21762;-61
2021/08/20 06:52:19;;;;;;;6.87;4.55;;;;;;;22.63;62.02;99880.62;1763905;80;21374;-58
2021/08/20 06:55:32;;;;;;;7.42;4.80;;;;;;;22.64;61.58;99889.30;1759878;81;21182;-59
2021/08/20 06:58:44;;;;;;;11.43;4.75;;;;;;;22.66;61.35;99884.84;1760025;80;21190;-59
2021/08/20 07:01:58;;;;;;;7.10;4.78;;;;;;;22.69;61.46;99889.89;1715912;82;21208;-60
2021/08/20 07:05:14;;;;;;;9.05;4.85;;;;;;;22.75;61.57;99884.63;1775740;80;21241;-60
2021/08/20 07:08:32;;;;;;;9.13;4.83;;;;;;;22.82;61.66;99874.06;1803273;79;21379;-63
2021/08/20 07:11:40;;;;;;;8.83;4.65;;;;;;;22.89;61.57;99873.29;1767253;80;21268;-59
2021/08/20 07:14:50;;;;;;;7.72;4.58;;;;;;;22.99;60.99;99871.97;1766710;81;21872;-60
2021/08/20 07:17:58;;;;;;;7.65;4.30;;;;;;;23.05;60.98;99873.69;1736750;81;21399;-59
2021/08/20 07:21:04;;;;;;;9.88;4.28;;;;;;;23.12;61.13;99876.52;1736415;82;21309;-60
2021/08/20 07:24:11;;;;;;;8.58;4.33;;;;;;;23.19;60.65;99878.53;1735543;81;21188;-58
2021/08/20 07:27:16;;;;;;;8.05;4.60;;;;;;;23.23;60.44;99857.89;1737225;81;21247;-60
2021/08/20 07:30:22;;;;;;;11.78;5.15;;;;;;;23.28;60.24;99849.55;1704436;83;21248;-58
2021/08/20 07:33:26;;;;;;;8.85;4.70;;;;;;;23.29;59.70;99849.84;1723468;82;21606;-59
2021/08/20 07:36:33;;;;;;;10.20;4.87;;;;;;;23.33;59.47;99852.37;1738856;81;21272;-59
2021/08/20 07:39:40;;;;;;;8.40;5.70;;;;;;;23.36;58.88;99867.19;1756188;81;21943;-60
2021/08/20 07:42:46;;;;;;;6.92;4.40;;;;;;;23.34;59.07;99849.88;1740940;82;21884;-60
2021/08/20 07:45:56;;;;;;;9.15;5.10;;;;;;;23.37;59.27;99860.50;1725421;82;21210;-59
2021/08/20 07:49:03;;;;;;;10.88;5.15;;;;;;;23.41;59.51;99867.22;1779971;79;22168;-59
2021/08/20 07:52:10;;;;;;;11.25;4.85;;;;;;;23.50;59.43;99861.38;1761037;81;21328;-61
2021/08/20 07:55:17;;;;;;;9.75;5.03;;;;;;;23.56;58.66;99872.31;1759124;79;21185;-57
2021/08/20 07:58:23;;;;;;;6.20;4.75;;;;;;;23.60;58.47;99855.30;1759408;79;21613;-58
2021/08/20 08:01:28;;;;;;;7.37;4.58;;;;;;;23.64;58.88;99869.58;1726907;83;21694;-59
2021/08/20 08:04:35;;;;;;;12.10;4.80;;;;;;;23.68;58.45;99866.50;1724347;81;21228;-60
2021/08/20 08:07:42;;;;;;;8.13;5.08;;;;;;;23.72;58.52;99871.00;1802942;79;21157;-60
2021/08/20 08:10:47;;;;;;;11.30;5.47;;;;;;;23.75;58.07;99867.11;1774440;78;21200;-60
2021/08/20 08:13:53;;;;;;;11.83;5.37;;;;;;;23.75;58.30;99877.44;1760893;79;21209;-58
2021/08/20 08:16:59;;;;;;;11.83;5.62;;;;;;;23.79;58.42;99880.80;1763513;80;21981;-58
2021/08/20 08:20:04;;;;;;;9.50;5.22;;;;;;;23.83;58.28;99856.79;1776031;78;21201;-59
2021/08/20 08:23:12;;;;;;;8.23;4.78;;;;;;;23.86;58.22;99859.03;1762080;80;21168;-59
2021/08/20 08:26:18;;;;;;;7.55;4.62;;;;;;;23.92;58.40;99864.06;1789201;79;21868;-58
2021/08/20 08:29:25;;;;;;;11.30;5.62;;;;;;;23.98;57.53;99875.03;1770683;79;21264;-58
2021/08/20 08:32:31;;;;;;;10.45;5.28;;;;;;;24.04;58.20;99861.33;1786588;79;21259;-59
2021/08/20 08:35:35;;;;;;;11.78;5.60;;;;;;;24.12;57.75;99856.59;1782585;79;21787;-58
2021/08/20 08:38:41;;;;;;;10.90;5.42;;;;;;;24.19;57.57;99864.17;1766702;79;21613;-59
2021/08/20 08:41:48;;;;;;;8.58;5.30;;;;;;;24.28;57.15;99854.11;1763094;79;21235;-59
2021/08/20 08:44:54;;;;;;;13.28;5.10;;;;;;;24.36;56.91;99855.52;1783106;79;21232;-60
2021/08/20 08:48:03;;;;;;;7.40;5.33;;;;;;;24.42;56.31;99834.83;1735071;82;21216;-59
2021/08/20 08:51:08;;;;;;;10.30;5.50;;;;;;;24.46;56.27;99840.98;1765948;80;21849;-59
2021/08/20 08:54:13;;;;;;;13.15;4.83;;;;;;;24.54;56.49;99836.23;1718083;83;21248;-59
2021/08/20 08:57:22;;;;;;;10.75;4.70;;;;;;;24.67;55.97;99842.67;1765664;80;21994;-60
2021/08/20 09:00:39;;;;;;;10.58;4.97;;;;;;;24.79;55.71;99846.04;1722445;82;21161;-59
2021/08/20 09:03:47;;;;;;;8.18;5.12;;;;;;;24.83;55.25;99837.34;1766112;80;21770;-60
2021/08/20 09:06:56;;;;;;;7.00;4.87;;;;;;;24.92;55.26;99833.42;1756404;81;21833;-58
2021/08/20 09:10:22;;;;;;;13.38;5.83;;;;;;;24.98;55.09;99840.13;1752659;80;21699;-57
2021/08/20 09:13:30;;;;;;;10.88;5.78;;;;;;;25.10;54.94;99831.98;1746762;81;21192;-57
2021/08/20 09:16:49;;;;;;;11.63;5.40;;;;;;;25.23;54.59;99828.59;1738164;81;21765;-59
2021/08/20 09:19:56;;;;;;;7.35;5.17;;;;;;;25.31;54.07;99826.03;1751602;79;21200;-58
2021/08/20 09:23:06;;;;;;;13.00;6.25;;;;;;;25.39;54.55;99822.67;1692610;84;21208;-57
2021/08/20 09:26:11;;;;;;;15.45;5.95;;;;;;;25.50;53.95;99820.69;1715019;83;21263;-58
2021/08/20 09:29:21;;;;;;;11.88;5.85;;;;;;;25.66;54.68;99824.52;1769822;80;21225;-58
2021/08/20 09:32:28;;;;;;;10.48;5.37;;;;;;;25.84;53.78;99819.67;1769300;80;21158;-57
2021/08/20 09:35:46;;;;;;;14.98;6.03;;;;;;;25.95;53.17;99832.50;1785722;78;21244;-57
2021/08/20 09:38:55;;;;;;;11.30;6.00;;;;;;;26.05;53.50;99817.61;1775967;80;21196;-58
2021/08/20 09:42:19;;;;;;;13.88;6.08;;;;;;;26.10;53.14;99814.19;1776407;80;21701;-58
2021/08/20 09:45:29;;;;;;;13.28;6.05;;;;;;;26.13;53.10;99818.39;1778248;78;21260;-57
2021/08/20 09:49:01;;;;;;;8.73;5.92;;;;;;;26.25;52.75;99817.45;1804078;79;21180;-57
2021/08/20 09:52:10;;;;;;;12.45;6.25;;;;;;;26.38;52.56;99815.40;1796310;79;21718;-57
2021/08/20 09:55:18;;;;;;;15.45;6.10;;;;;;;26.49;52.24;99828.22;1750884;80;21196;-57
2021/08/20 09:58:27;;;;;;;10.93;5.10;;;;;;;26.60;52.46;99836.83;1776672;80;21733;-55
2021/08/20 10:01:52;;;;;;;10.72;5.45;;;;;;;26.72;50.78;99837.31;1777120;80;21764;-56
2021/08/20 10:05:10;;;;;;;7.85;5.05;;;;;;;26.84;50.55;99825.13;1772630;79;21224;-58
2021/08/20 10:08:15;;;;;;;9.13;5.25;;;;;;;27.05;49.85;99833.61;1799547;79;21203;-57
2021/08/20 10:11:23;;;;;;;8.38;5.00;;;;;;;27.19;49.41;99827.58;1775375;79;21232;-56
2021/08/20 10:14:34;;;;;;;12.68;5.25;;;;;;;27.37;48.80;99838.07;1806092;79;21713;-57
2021/08/20 10:17:39;;;;;;;12.93;5.33;;;;;;;27.53;47.83;99835.34;1776148;79;21219;-58
2021/08/20 10:20:46;;;;;;;13.50;4.83;;;;;;;27.61;48.09;99827.66;1806025;78;21340;-57
2021/08/20 10:23:52;;;;;;;10.08;5.12;;;;;;;27.73;47.77;99833.67;1753500;80;21620;-54
2021/08/20 10:27:02;;;;;;;7.62;4.85;;;;;;;27.84;46.97;99847.87;1771687;81;21255;-52
2021/08/20 10:30:08;;;;;;;12.65;5.28;;;;;;;27.88;47.23;99841.11;1736235;81;22246;-53
2021/08/20 10:33:14;;;;;;;8.70;4.62;;;;;;;28.00;46.18;99833.08;1731872;83;21221;-52
2021/08/20 10:36:21;;;;;;;8.80;4.70;;;;;;;28.05;46.15;99833.57;1730947;81;21185;-53
2021/08/20 10:39:32;;;;;;;12.05;5.30;;;;;;;28.11;46.26;99827.56;1761580;81;21723;-51
2021/08/20 10:42:48;;;;;;;11.43;5.50;;;;;;;28.25;46.23;99830.44;1742373;81;21546;-52
2021/08/20 10:45:54;;;;;;;14.93;6.00;;;;;;;28.36;46.65;99823.51;1731069;83;21233;-52
2021/08/20 10:49:22;;;;;;;10.65;5.67;;;;;;;28.44;46.34;99835.48;1718473;81;21196;-53
2021/08/20 10:52:32;;;;;;;11.22;5.40;;;;;;;28.43;46.00;99833.23;1763522;81;21296;-53
2021/08/20 10:55:38;;;;;;;13.25;4.85;;;;;;;28.34;45.58;99835.64;1776692;80;21204;-54
2021/08/20 10:58:50;;;;;;;9.50;5.00;;;;;;;28.20;45.74;99834.73;1767042;79;21708;-52
2021/08/20 11:01:55;;;;;;;9.73;5.10;;;;;;;28.08;45.59;99842.81;1777407;80;21909;-53
2021/08/20 11:05:12;;;;;;;10.55;5.05;;;;;;;27.96;45.89;99845.22;1737127;79;21362;-53
2021/08/20 11:08:40;;;;;;;13.88;6.28;;;;;;;27.87;46.59;99857.70;1721562;83;21278;-49
2021/08/20 11:11:54;;;;;;;10.68;5.35;;;;;;;27.71;47.20;99850.04;1776231;80;21839;-55
2021/08/20 11:15:08;;;;;;;11.15;6.20;;;;;;;27.56;47.91;99861.47;1752772;81;21200;-54
2021/08/20 11:18:15;;;;;;;9.15;6.00;;;;;;;27.41;48.49;99868.69;1749850;81;21211;-54
2021/08/20 11:21:51;;;;;;;13.60;6.40;;;;;;;27.32;48.56;99863.42;1776387;80;22207;-53
2021/08/20 11:25:23;;;;;;;11.85;5.83;;;;;;;27.25;48.37;99878.39;1781791;79;21227;-52
2021/08/20 11:28:38;;;;;;;12.45;5.97;;;;;;;27.12;48.57;99869.24;1774919;79;21864;-52
2021/08/20 11:31:45;;;;;;;11.70;6.25;;;;;;;27.01;48.82;99862.60;1786940;80;21530;-53
2021/08/20 11:34:59;;;;;;;11.28;6.20;;;;;;;26.92;49.41;99873.66;1777476;78;21201;-53
2021/08/20 11:38:08;;;;;;;10.60;5.62;;;;;;;26.84;49.66;99871.48;1755089;80;22183;-52
2021/08/20 11:41:23;;;;;;;12.47;5.45;;;;;;;26.79;49.80;99882.77;1804322;79;21912;-53
2021/08/20 11:44:26;;;;;;;11.07;5.40;;;;;;;26.71;49.88;99876.37;1750509;80;21426;-54
2021/08/20 11:47:34;;;;;;;12.75;5.72;;;;;;;26.64;49.42;99875.00;1764898;80;21190;-53
2021/08/20 11:50:40;;;;;;;23.18;6.05;;;;;;;26.60;49.74;99870.53;1766249;80;21347;-54
2021/08/20 11:53:49;;;;;;;8.85;5.53;;;;;;;26.61;49.32;99878.41;1767560;80;21674;-53
2021/08/20 11:57:01;;;;;;;10.72;6.15;;;;;;;26.60;50.98;99880.36;1776124;79;21484;-53
2021/08/20 12:00:07;;;;;;;;;;;;;;;26.55;51.94;99883.75;1786535;79;21924;-54
2021/08/20 12:03:16;;;;;;;13.50;6.08;;;;;;;26.52;52.66;99883.78;1777191;79;20214;-53
2021/08/20 12:06:23;;;;;;;9.03;6.40;;;;;;;26.44;52.79;99882.45;1749898;80;21204;-54
2021/08/20 12:09:29;;;;;;;10.48;6.28;;;;;;;26.34;53.04;99884.47;1743312;82;21279;-52
2021/08/20 12:12:35;;;;;;;16.75;6.45;;;;;;;26.28;53.46;99887.89;1735197;82;21196;-54
2021/08/20 12:15:42;;;;;;;12.70;5.95;;;;;;;26.28;53.68;99878.06;1735823;81;21196;-53
2021/08/20 12:18:50;;;;;;;12.85;5.97;;;;;;;26.29;53.97;99873.30;1704326;83;21225;-54
2021/08/20 12:22:17;;;;;;;13.85;6.03;;;;;;;26.31;54.18;99880.29;1726678;82;21225;-54
2021/08/20 12:25:29;;;;;;;12.28;5.75;;;;;;;26.33;54.01;99880.84;1757675;80;21370;-54
2021/08/20 12:28:35;;;;;;;12.55;5.85;;;;;;;26.35;54.29;99876.34;1797574;80;21212;-54
2021/08/20 12:31:43;;;;;;;15.72;6.35;;;;;;;26.39;53.91;99873.20;1779423;80;21575;-54
2021/08/20 12:34:49;;;;;;;16.30;6.00;;;;;;;26.42;53.62;99872.06;1797640;79;21181;-53
2021/08/20 12:38:17;;;;;;;11.65;6.33;;;;;;;26.46;53.84;99873.14;1763903;81;21198;-54
2021/08/20 12:41:22;;;;;;;15.13;6.22;;;;;;;26.56;53.76;99880.66;1763954;81;21817;-54
2021/08/20 12:44:38;;;;;;;11.53;6.08;;;;;;;26.61;53.50;99872.20;1773662;80;21197;-54
2021/08/20 12:47:46;;;;;;;10.28;5.60;;;;;;;26.66;53.46;99874.16;1772043;79;21928;-53
2021/08/20 12:50:53;;;;;;;11.53;5.95;;;;;;;26.74;53.55;99874.38;1751519;80;21260;-54
2021/08/20 12:54:19;;;;;;;11.63;5.47;;;;;;;26.88;53.46;99876.77;1762989;81;21923;-54
2021/08/20 12:57:21;;;;;;;13.00;8.10;;;;;;;26.95;53.56;99881.50;1768241;80;21503;-54
2021/08/20 13:00:28;;;;;;;10.03;6.37;;;;;;;27.02;53.31;99879.75;1731982;79;21336;-54
2021/08/20 13:03:35;;;;;;;11.43;5.85;;;;;;;27.10;53.08;99879.12;1760878;81;21351;-56
2021/08/20 13:06:43;;;;;;;11.83;6.25;;;;;;;27.15;53.62;99889.73;1765790;80;21256;-53
2021/08/20 13:09:49;;;;;;;16.25;6.35;;;;;;;27.11;53.26;99886.41;1746790;81;21192;-52
2021/08/20 13:12:57;;;;;;;13.25;6.08;;;;;;;27.07;52.87;99886.15;1795879;79;21235;-55
2021/08/20 13:16:03;;;;;;;11.73;5.47;;;;;;;27.02;52.33;99893.22;1758512;81;21734;-54
2021/08/20 13:19:08;;;;;;;8.13;5.37;;;;;;;26.96;52.32;99895.81;1765933;80;21189;-55
2021/08/20 13:22:15;;;;;;;12.43;5.95;;;;;;;26.94;52.41;99903.69;1764830;81;21324;-54
2021/08/20 13:25:21;;;;;;;14.85;5.85;;;;;;;26.94;52.37;99906.50;1766441;79;21367;-53
2021/08/20 13:28:29;;;;;;;16.60;6.22;;;;;;;26.93;52.23;99906.23;1766167;80;21324;-56
2021/08/20 13:31:35;;;;;;;14.10;6.15;;;;;;;26.90;52.54;99911.04;1770486;80;21722;-56
2021/08/20 13:34:40;;;;;;;9.00;6.00;;;;;;;26.92;52.46;99905.12;1805262;78;21216;-58
2021/08/20 13:37:47;;;;;;;13.50;5.87;;;;;;;26.95;51.63;99907.34;1772618;79;21204;-59
2021/08/20 13:40:54;;;;;;;14.55;6.12;;;;;;;26.95;51.76;99903.98;1767702;80;21244;-58
2021/08/20 13:44:00;;;;;;;9.00;5.62;;;;;;;26.99;51.68;99905.05;1747810;80;21789;-58
2021/08/20 13:47:04;;;;;;;11.65;5.45;;;;;;;26.99;50.73;99907.86;1765969;80;21667;-59
2021/08/20 13:50:10;;;;;;;11.22;6.40;;;;;;;27.00;51.28;99904.49;1783845;79;21204;-59
2021/08/20 13:53:18;;;;;;;14.28;6.03;;;;;;;27.10;53.25;99898.79;1773938;78;21239;-59
2021/08/20 13:56:24;;;;;;;11.75;5.53;;;;;;;27.17;54.13;99897.30;1772162;80;21346;-59
2021/08/20 13:59:30;;;;;;;13.30;6.50;;;;;;;27.25;53.96;99899.47;1753877;80;21213;-60
2021/08/20 14:02:35;;;;;;;12.73;6.28;;;;;;;27.30;53.98;99896.65;1742486;81;21331;-60
2021/08/20 14:05:44;;;;;;;15.50;6.15;;;;;;;27.31;53.64;99894.66;1734102;82;21692;-59
2021/08/20 14:08:52;;;;;;;10.32;6.08;;;;;;;27.30;53.77;99900.86;1728864;79;21170;-59
2021/08/20 14:11:59;;;;;;;9.05;5.20;;;;;;;27.29;51.70;99892.14;1764467;79;21173;-59
2021/08/20 14:15:04;;;;;;;9.25;5.65;;;;;;;27.21;50.26;99896.16;1783773;80;21331;-59
2021/08/20 14:18:10;;;;;;;9.63;5.40;;;;;;;27.13;49.73;99903.23;1798760;79;21706;-58
2021/08/20 14:21:17;;;;;;;8.28;5.17;;;;;;;27.06;49.39;99908.92;1759073;81;21861;-60
2021/08/20 14:24:23;;;;;;;7.87;5.10;;;;;;;27.03;49.49;99907.56;1765408;81;21245;-59
2021/08/20 14:27:30;;;;;;;11.73;5.03;;;;;;;27.02;49.65;99908.67;1751325;81;21279;-56
2021/08/20 14:30:35;;;;;;;10.10;5.33;;;;;;;27.05;49.24;99907.27;1750934;81;21733;-59
2021/08/20 14:33:43;;;;;;;11.00;5.45;;;;;;;27.10;49.16;99915.66;1735819;81;21753;-58
2021/08/20 14:36:48;;;;;;;10.18;5.47;;;;;;;27.19;49.28;99916.68;1771448;81;21829;-58
2021/08/20 14:39:53;;;;;;;10.93;5.47;;;;;;;27.22;49.12;99921.15;1769495;79;21209;-58
2021/08/20 14:43:00;;;;;;;9.78;5.28;;;;;;;27.16;48.96;99920.09;1739513;81;21267;-59
2021/08/20 14:46:05;;;;;;;13.55;5.80;;;;;;;27.05;49.33;99920.73;1710884;82;21253;-59